sensor_id;sensor_type;location;lat;lon;timestamp;temperature;humidity
52899;DHT22;38763;53.096;6.062;2023-07-20T00:01:46;14.90;99.90
52899;DHT22;38763;53.096;6.062;2023-07-20T00:04:13;14.80;99.90
52899;DHT22;38763;53.096;6.062;2023-07-20T00:06:40;14.80;99.90
52899;DHT22;38763;53.096;6.062;2023-07-20T00:09:08;14.70;99.90
52899;DHT22;38763;53.096;6.062;2023-07-20T00:11:36;14.60;99.90
52899;DHT22;38763;53.096;6.062;2023-07-20T00:14:03;14.60;99.90
52899;DHT22;38763;53.096;6.062;2023-07-20T00:16:29;14.60;99.90
52899;DHT22;38763;53.096;6.062;2023-07-20T00:18:55;14.50;99.90
52899;DHT22;38763;53.096;6.062;2023-07-20T00:21:20;14.40;99.90
52899;DHT22;38763;53.096;6.062;2023-07-20T00:23:46;14.50;99.90
52899;DHT22;38763;53.096;6.062;2023-07-20T00:26:12;14.40;99.90
52899;DHT22;38763;53.096;6.062;2023-07-20T00:28:37;14.40;99.90
52899;DHT22;38763;53.096;6.062;2023-07-20T00:31:03;14.40;99.90
52899;DHT22;38763;53.096;6.062;2023-07-20T00:33:29;14.30;99.90
52899;DHT22;38763;53.096;6.062;2023-07-20T00:35:55;14.30;99.90
52899;DHT22;38763;53.096;6.062;2023-07-20T00:38:21;14.30;99.90
52899;DHT22;38763;53.096;6.062;2023-07-20T00:40:46;14.30;99.90
52899;DHT22;38763;53.096;6.062;2023-07-20T00:43:13;14.30;99.90
52899;DHT22;38763;53.096;6.062;2023-07-20T00:45:39;14.30;99.90
52899;DHT22;38763;53.096;6.062;2023-07-20T00:48:06;14.20;99.90
52899;DHT22;38763;53.096;6.062;2023-07-20T00:50:32;14.10;99.90
52899;DHT22;38763;53.096;6.062;2023-07-20T00:52:59;14.10;99.90
52899;DHT22;38763;53.096;6.062;2023-07-20T00:55:25;14.10;99.90
52899;DHT22;38763;53.096;6.062;2023-07-20T00:57:52;14.10;99.90
52899;DHT22;38763;53.096;6.062;2023-07-20T01:00:18;14.00;99.90
52899;DHT22;38763;53.096;6.062;2023-07-20T01:02:45;14.00;99.90
52899;DHT22;38763;53.096;6.062;2023-07-20T01:05:11;14.10;99.90
52899;DHT22;38763;53.096;6.062;2023-07-20T01:08:05;14.00;99.90
52899;DHT22;38763;53.096;6.062;2023-07-20T01:10:40;14.10;99.90
52899;DHT22;38763;53.096;6.062;2023-07-20T01:13:07;14.00;99.90
52899;DHT22;38763;53.096;6.062;2023-07-20T01:15:35;14.00;99.90
52899;DHT22;38763;53.096;6.062;2023-07-20T01:18:00;13.90;99.90
52899;DHT22;38763;53.096;6.062;2023-07-20T01:20:32;13.90;99.90
52899;DHT22;38763;53.096;6.062;2023-07-20T01:29:04;13.90;99.90
52899;DHT22;38763;53.096;6.062;2023-07-20T01:31:35;13.80;99.90
52899;DHT22;38763;53.096;6.062;2023-07-20T01:34:02;13.80;99.90
52899;DHT22;38763;53.096;6.062;2023-07-20T01:36:33;13.70;99.90
52899;DHT22;38763;53.096;6.062;2023-07-20T01:38:59;13.70;99.90
52899;DHT22;38763;53.096;6.062;2023-07-20T01:41:25;13.70;99.90
52899;DHT22;38763;53.096;6.062;2023-07-20T01:43:51;13.60;99.90
52899;DHT22;38763;53.096;6.062;2023-07-20T01:46:17;13.60;99.90
52899;DHT22;38763;53.096;6.062;2023-07-20T01:48:42;13.60;99.90
52899;DHT22;38763;53.096;6.062;2023-07-20T01:51:08;13.60;99.90
52899;DHT22;38763;53.096;6.062;2023-07-20T01:53:34;13.60;99.90
52899;DHT22;38763;53.096;6.062;2023-07-20T01:56:00;13.60;99.90
52899;DHT22;38763;53.096;6.062;2023-07-20T01:58:25;13.50;99.90
52899;DHT22;38763;53.096;6.062;2023-07-20T02:00:51;13.50;99.90
52899;DHT22;38763;53.096;6.062;2023-07-20T02:03:17;13.50;99.90
52899;DHT22;38763;53.096;6.062;2023-07-20T02:05:43;13.50;99.90
52899;DHT22;38763;53.096;6.062;2023-07-20T02:08:09;13.50;99.90
52899;DHT22;38763;53.096;6.062;2023-07-20T02:10:35;13.50;99.90
52899;DHT22;38763;53.096;6.062;2023-07-20T02:13:01;13.40;99.90
52899;DHT22;38763;53.096;6.062;2023-07-20T02:15:27;13.40;99.90
52899;DHT22;38763;53.096;6.062;2023-07-20T02:17:54;13.50;99.90
52899;DHT22;38763;53.096;6.062;2023-07-20T02:20:19;13.40;99.90
52899;DHT22;38763;53.096;6.062;2023-07-20T02:22:46;13.40;99.90
52899;DHT22;38763;53.096;6.062;2023-07-20T02:25:12;13.20;99.90
52899;DHT22;38763;53.096;6.062;2023-07-20T02:27:38;13.20;99.90
52899;DHT22;38763;53.096;6.062;2023-07-20T02:30:05;13.20;99.90
52899;DHT22;38763;53.096;6.062;2023-07-20T02:32:31;13.20;99.90
52899;DHT22;38763;53.096;6.062;2023-07-20T02:34:57;13.30;99.90
52899;DHT22;38763;53.096;6.062;2023-07-20T02:37:24;13.20;99.90
52899;DHT22;38763;53.096;6.062;2023-07-20T02:39:49;13.20;99.90
52899;DHT22;38763;53.096;6.062;2023-07-20T02:42:15;13.10;99.90
52899;DHT22;38763;53.096;6.062;2023-07-20T02:44:41;13.10;99.90
52899;DHT22;38763;53.096;6.062;2023-07-20T02:47:06;13.00;99.90
52899;DHT22;38763;53.096;6.062;2023-07-20T02:49:32;13.00;99.90
52899;DHT22;38763;53.096;6.062;2023-07-20T02:51:58;13.00;99.90
52899;DHT22;38763;53.096;6.062;2023-07-20T02:54:23;13.00;99.90
52899;DHT22;38763;53.096;6.062;2023-07-20T02:56:49;13.00;99.90
52899;DHT22;38763;53.096;6.062;2023-07-20T02:59:15;12.90;99.90
52899;DHT22;38763;53.096;6.062;2023-07-20T03:01:40;12.90;99.90
52899;DHT22;38763;53.096;6.062;2023-07-20T03:04:08;12.80;99.90
52899;DHT22;38763;53.096;6.062;2023-07-20T03:06:36;12.80;99.90
52899;DHT22;38763;53.096;6.062;2023-07-20T03:09:02;12.80;99.90
52899;DHT22;38763;53.096;6.062;2023-07-20T03:11:28;12.80;99.90
52899;DHT22;38763;53.096;6.062;2023-07-20T03:13:53;12.80;99.90
52899;DHT22;38763;53.096;6.062;2023-07-20T03:16:19;12.80;99.90
52899;DHT22;38763;53.096;6.062;2023-07-20T03:18:46;12.70;99.90
52899;DHT22;38763;53.096;6.062;2023-07-20T03:21:12;12.70;99.90
52899;DHT22;38763;53.096;6.062;2023-07-20T03:23:38;12.60;99.90
52899;DHT22;38763;53.096;6.062;2023-07-20T03:26:04;12.70;99.90
52899;DHT22;38763;53.096;6.062;2023-07-20T03:28:30;12.60;99.90
52899;DHT22;38763;53.096;6.062;2023-07-20T03:30:56;12.70;99.90
52899;DHT22;38763;53.096;6.062;2023-07-20T03:33:26;12.60;99.90
52899;DHT22;38763;53.096;6.062;2023-07-20T03:35:53;12.70;99.90
52899;DHT22;38763;53.096;6.062;2023-07-20T03:38:19;12.60;99.90
52899;DHT22;38763;53.096;6.062;2023-07-20T03:40:59;12.60;99.90
52899;DHT22;38763;53.096;6.062;2023-07-20T03:43:26;12.50;99.90
52899;DHT22;38763;53.096;6.062;2023-07-20T03:45:52;12.50;99.90
52899;DHT22;38763;53.096;6.062;2023-07-20T03:48:20;12.50;99.90
52899;DHT22;38763;53.096;6.062;2023-07-20T03:50:48;12.50;99.90
52899;DHT22;38763;53.096;6.062;2023-07-20T03:53:15;12.50;99.90
52899;DHT22;38763;53.096;6.062;2023-07-20T03:55:44;12.50;99.90
52899;DHT22;38763;53.096;6.062;2023-07-20T03:58:11;12.50;99.90
52899;DHT22;38763;53.096;6.062;2023-07-20T04:00:37;12.40;99.90
52899;DHT22;38763;53.096;6.062;2023-07-20T04:03:03;12.50;99.90
52899;DHT22;38763;53.096;6.062;2023-07-20T04:05:28;12.50;99.90
52899;DHT22;38763;53.096;6.062;2023-07-20T04:07:55;12.50;99.90
52899;DHT22;38763;53.096;6.062;2023-07-20T04:10:21;12.40;99.90
52899;DHT22;38763;53.096;6.062;2023-07-20T04:12:47;12.50;99.90
52899;DHT22;38763;53.096;6.062;2023-07-20T04:15:13;12.50;99.90
52899;DHT22;38763;53.096;6.062;2023-07-20T04:17:40;12.60;99.90
52899;DHT22;38763;53.096;6.062;2023-07-20T04:20:07;12.60;99.90
52899;DHT22;38763;53.096;6.062;2023-07-20T04:22:32;12.60;99.90
52899;DHT22;38763;53.096;6.062;2023-07-20T04:24:58;12.70;99.90
52899;DHT22;38763;53.096;6.062;2023-07-20T04:27:24;12.70;99.90
52899;DHT22;38763;53.096;6.062;2023-07-20T04:29:49;12.70;99.90
52899;DHT22;38763;53.096;6.062;2023-07-20T04:32:15;12.70;99.90
52899;DHT22;38763;53.096;6.062;2023-07-20T04:34:42;12.70;99.90
52899;DHT22;38763;53.096;6.062;2023-07-20T04:37:07;12.80;99.90
52899;DHT22;38763;53.096;6.062;2023-07-20T04:39:33;12.80;99.90
52899;DHT22;38763;53.096;6.062;2023-07-20T04:41:58;12.80;99.90
52899;DHT22;38763;53.096;6.062;2023-07-20T04:44:24;12.80;99.90
52899;DHT22;38763;53.096;6.062;2023-07-20T04:46:50;12.90;99.90
52899;DHT22;38763;53.096;6.062;2023-07-20T04:49:15;12.80;99.90
52899;DHT22;38763;53.096;6.062;2023-07-20T04:51:41;12.90;99.90
52899;DHT22;38763;53.096;6.062;2023-07-20T04:54:07;12.90;99.90
52899;DHT22;38763;53.096;6.062;2023-07-20T04:56:33;12.90;99.90
52899;DHT22;38763;53.096;6.062;2023-07-20T04:58:58;13.00;99.90
52899;DHT22;38763;53.096;6.062;2023-07-20T05:01:24;13.00;99.90
52899;DHT22;38763;53.096;6.062;2023-07-20T05:03:50;13.10;99.90
52899;DHT22;38763;53.096;6.062;2023-07-20T05:06:15;13.20;99.90
52899;DHT22;38763;53.096;6.062;2023-07-20T05:08:41;13.20;99.90
52899;DHT22;38763;53.096;6.062;2023-07-20T05:11:07;13.30;99.90
52899;DHT22;38763;53.096;6.062;2023-07-20T05:13:33;13.40;99.90
52899;DHT22;38763;53.096;6.062;2023-07-20T05:15:59;13.40;99.90
52899;DHT22;38763;53.096;6.062;2023-07-20T05:18:24;13.40;99.90
52899;DHT22;38763;53.096;6.062;2023-07-20T05:20:51;13.50;99.90
52899;DHT22;38763;53.096;6.062;2023-07-20T05:23:19;13.50;99.90
52899;DHT22;38763;53.096;6.062;2023-07-20T05:25:45;13.60;99.90
52899;DHT22;38763;53.096;6.062;2023-07-20T05:28:11;13.70;99.90
52899;DHT22;38763;53.096;6.062;2023-07-20T05:30:37;13.80;99.90
52899;DHT22;38763;53.096;6.062;2023-07-20T05:33:02;13.80;99.90
52899;DHT22;38763;53.096;6.062;2023-07-20T05:35:28;13.90;99.90
52899;DHT22;38763;53.096;6.062;2023-07-20T05:37:54;14.10;99.90
52899;DHT22;38763;53.096;6.062;2023-07-20T05:40:20;14.20;99.90
52899;DHT22;38763;53.096;6.062;2023-07-20T05:42:47;14.30;99.90
52899;DHT22;38763;53.096;6.062;2023-07-20T05:45:17;14.60;99.90
52899;DHT22;38763;53.096;6.062;2023-07-20T05:47:43;14.80;99.90
52899;DHT22;38763;53.096;6.062;2023-07-20T05:50:10;15.00;99.90
52899;DHT22;38763;53.096;6.062;2023-07-20T05:52:35;15.10;99.90
52899;DHT22;38763;53.096;6.062;2023-07-20T05:55:01;15.30;99.90
52899;DHT22;38763;53.096;6.062;2023-07-20T05:57:27;15.30;99.90
52899;DHT22;38763;53.096;6.062;2023-07-20T05:59:53;15.30;99.90
52899;DHT22;38763;53.096;6.062;2023-07-20T06:02:18;15.40;99.90
52899;DHT22;38763;53.096;6.062;2023-07-20T06:04:44;15.30;99.90
52899;DHT22;38763;53.096;6.062;2023-07-20T06:07:10;15.30;99.90
52899;DHT22;38763;53.096;6.062;2023-07-20T06:09:36;15.40;99.90
52899;DHT22;38763;53.096;6.062;2023-07-20T06:12:01;15.30;99.90
52899;DHT22;38763;53.096;6.062;2023-07-20T06:14:27;15.40;99.90
52899;DHT22;38763;53.096;6.062;2023-07-20T06:16:53;15.40;99.90
52899;DHT22;38763;53.096;6.062;2023-07-20T06:19:18;15.40;99.90
52899;DHT22;38763;53.096;6.062;2023-07-20T06:21:44;15.40;99.90
52899;DHT22;38763;53.096;6.062;2023-07-20T06:24:10;15.50;99.90
52899;DHT22;38763;53.096;6.062;2023-07-20T06:26:35;15.50;99.90
52899;DHT22;38763;53.096;6.062;2023-07-20T06:29:07;15.50;99.90
52899;DHT22;38763;53.096;6.062;2023-07-20T06:31:35;15.50;99.90
52899;DHT22;38763;53.096;6.062;2023-07-20T06:34:01;15.50;99.90
52899;DHT22;38763;53.096;6.062;2023-07-20T06:36:27;15.50;99.90
52899;DHT22;38763;53.096;6.062;2023-07-20T06:38:53;15.60;99.90
52899;DHT22;38763;53.096;6.062;2023-07-20T06:41:19;15.60;99.90
52899;DHT22;38763;53.096;6.062;2023-07-20T06:43:45;15.70;99.90
52899;DHT22;38763;53.096;6.062;2023-07-20T06:46:11;15.70;99.90
52899;DHT22;38763;53.096;6.062;2023-07-20T06:48:36;15.90;99.90
52899;DHT22;38763;53.096;6.062;2023-07-20T06:51:02;15.90;99.90
52899;DHT22;38763;53.096;6.062;2023-07-20T06:53:28;16.10;99.90
52899;DHT22;38763;53.096;6.062;2023-07-20T06:55:54;16.10;99.90
52899;DHT22;38763;53.096;6.062;2023-07-20T06:58:23;16.10;99.90
52899;DHT22;38763;53.096;6.062;2023-07-20T07:00:48;16.10;99.90
52899;DHT22;38763;53.096;6.062;2023-07-20T07:03:14;16.20;99.90
52899;DHT22;38763;53.096;6.062;2023-07-20T07:05:40;16.20;99.90
52899;DHT22;38763;53.096;6.062;2023-07-20T07:08:06;16.20;99.90
52899;DHT22;38763;53.096;6.062;2023-07-20T07:10:32;16.30;99.90
52899;DHT22;38763;53.096;6.062;2023-07-20T07:12:58;16.30;99.90
52899;DHT22;38763;53.096;6.062;2023-07-20T07:15:24;16.30;99.90
52899;DHT22;38763;53.096;6.062;2023-07-20T07:17:49;16.40;99.90
52899;DHT22;38763;53.096;6.062;2023-07-20T07:20:16;16.40;99.90
52899;DHT22;38763;53.096;6.062;2023-07-20T07:22:42;16.60;99.90
52899;DHT22;38763;53.096;6.062;2023-07-20T07:25:09;16.80;99.90
52899;DHT22;38763;53.096;6.062;2023-07-20T07:27:35;17.00;99.90
52899;DHT22;38763;53.096;6.062;2023-07-20T07:30:02;17.50;99.90
52899;DHT22;38763;53.096;6.062;2023-07-20T07:32:28;17.80;99.90
52899;DHT22;38763;53.096;6.062;2023-07-20T07:34:53;17.60;99.90
52899;DHT22;38763;53.096;6.062;2023-07-20T07:37:19;17.70;99.90
52899;DHT22;38763;53.096;6.062;2023-07-20T07:39:45;18.70;99.90
52899;DHT22;38763;53.096;6.062;2023-07-20T07:42:11;19.40;99.90
52899;DHT22;38763;53.096;6.062;2023-07-20T07:44:38;18.70;99.90
52899;DHT22;38763;53.096;6.062;2023-07-20T07:47:03;18.40;99.90
52899;DHT22;38763;53.096;6.062;2023-07-20T07:49:29;19.00;99.90
52899;DHT22;38763;53.096;6.062;2023-07-20T07:51:55;19.90;99.90
52899;DHT22;38763;53.096;6.062;2023-07-20T07:54:20;20.40;99.90
52899;DHT22;38763;53.096;6.062;2023-07-20T07:56:46;20.80;99.90
52899;DHT22;38763;53.096;6.062;2023-07-20T07:59:11;21.20;99.90
52899;DHT22;38763;53.096;6.062;2023-07-20T08:01:37;22.00;99.90
52899;DHT22;38763;53.096;6.062;2023-07-20T08:04:03;22.80;99.90
52899;DHT22;38763;53.096;6.062;2023-07-20T08:06:29;23.00;98.00
52899;DHT22;38763;53.096;6.062;2023-07-20T08:08:55;22.50;96.90
52899;DHT22;38763;53.096;6.062;2023-07-20T08:11:20;22.10;95.40
52899;DHT22;38763;53.096;6.062;2023-07-20T08:13:46;23.00;97.40
52899;DHT22;38763;53.096;6.062;2023-07-20T08:16:12;23.00;98.40
52899;DHT22;38763;53.096;6.062;2023-07-20T08:18:37;23.40;97.30
52899;DHT22;38763;53.096;6.062;2023-07-20T08:21:03;23.70;96.00
52899;DHT22;38763;53.096;6.062;2023-07-20T08:23:29;22.80;95.60
52899;DHT22;38763;53.096;6.062;2023-07-20T08:25:54;23.20;97.00
52899;DHT22;38763;53.096;6.062;2023-07-20T08:28:20;23.70;96.00
52899;DHT22;38763;53.096;6.062;2023-07-20T08:30:47;23.80;97.30
52899;DHT22;38763;53.096;6.062;2023-07-20T08:33:15;24.20;96.60
52899;DHT22;38763;53.096;6.062;2023-07-20T08:35:41;23.20;96.50
52899;DHT22;38763;53.096;6.062;2023-07-20T08:38:07;23.20;96.20
52899;DHT22;38763;53.096;6.062;2023-07-20T08:40:34;22.80;98.20
52899;DHT22;38763;53.096;6.062;2023-07-20T08:43:04;22.90;98.10
52899;DHT22;38763;53.096;6.062;2023-07-20T08:45:33;23.60;97.80
52899;DHT22;38763;53.096;6.062;2023-07-20T08:48:00;23.60;96.60
52899;DHT22;38763;53.096;6.062;2023-07-20T08:50:30;23.00;98.00
52899;DHT22;38763;53.096;6.062;2023-07-20T08:52:57;22.10;99.50
52899;DHT22;38763;53.096;6.062;2023-07-20T08:55:24;21.70;99.80
52899;DHT22;38763;53.096;6.062;2023-07-20T08:57:53;22.20;99.70
52899;DHT22;38763;53.096;6.062;2023-07-20T09:00:20;22.40;98.90
52899;DHT22;38763;53.096;6.062;2023-07-20T09:02:46;22.50;98.90
52899;DHT22;38763;53.096;6.062;2023-07-20T09:05:12;22.80;98.00
52899;DHT22;38763;53.096;6.062;2023-07-20T09:07:41;22.50;98.90
52899;DHT22;38763;53.096;6.062;2023-07-20T09:10:07;21.60;98.40
52899;DHT22;38763;53.096;6.062;2023-07-20T09:12:39;21.30;99.20
52899;DHT22;38763;53.096;6.062;2023-07-20T09:15:06;21.10;99.30
52899;DHT22;38763;53.096;6.062;2023-07-20T09:17:33;20.40;99.90
52899;DHT22;38763;53.096;6.062;2023-07-20T09:20:01;20.30;99.90
52899;DHT22;38763;53.096;6.062;2023-07-20T09:22:31;20.40;99.90
52899;DHT22;38763;53.096;6.062;2023-07-20T09:24:58;20.40;99.90
52899;DHT22;38763;53.096;6.062;2023-07-20T09:27:40;21.20;99.90
52899;DHT22;38763;53.096;6.062;2023-07-20T09:30:06;21.50;99.40
52899;DHT22;38763;53.096;6.062;2023-07-20T09:32:54;22.20;99.90
52899;DHT22;38763;53.096;6.062;2023-07-20T09:35:21;22.70;98.70
52899;DHT22;38763;53.096;6.062;2023-07-20T09:40:20;23.70;97.70
52899;DHT22;38763;53.096;6.062;2023-07-20T09:42:46;23.90;98.10
52899;DHT22;38763;53.096;6.062;2023-07-20T09:45:13;23.60;97.90
52899;DHT22;38763;53.096;6.062;2023-07-20T09:47:39;23.00;98.00
52899;DHT22;38763;53.096;6.062;2023-07-20T09:50:06;23.30;96.60
52899;DHT22;38763;53.096;6.062;2023-07-20T09:52:38;23.90;97.40
52899;DHT22;38763;53.096;6.062;2023-07-20T09:55:08;23.30;96.00
52899;DHT22;38763;53.096;6.062;2023-07-20T09:57:35;22.30;96.80
52899;DHT22;38763;53.096;6.062;2023-07-20T10:00:03;21.70;98.40
52899;DHT22;38763;53.096;6.062;2023-07-20T10:02:37;21.30;99.00
52899;DHT22;38763;53.096;6.062;2023-07-20T10:05:08;21.20;99.70
52899;DHT22;38763;53.096;6.062;2023-07-20T10:07:36;20.80;99.90
52899;DHT22;38763;53.096;6.062;2023-07-20T10:10:06;21.60;99.90
52899;DHT22;38763;53.096;6.062;2023-07-20T10:12:34;22.20;99.50
52899;DHT22;38763;53.096;6.062;2023-07-20T10:15:20;22.50;99.00
52899;DHT22;38763;53.096;6.062;2023-07-20T10:20:55;23.10;98.90
52899;DHT22;38763;53.096;6.062;2023-07-20T10:23:22;23.40;96.20
52899;DHT22;38763;53.096;6.062;2023-07-20T10:25:49;23.10;95.60
52899;DHT22;38763;53.096;6.062;2023-07-20T10:28:15;23.70;97.20
52899;DHT22;38763;53.096;6.062;2023-07-20T10:30:41;24.00;96.70
52899;DHT22;38763;53.096;6.062;2023-07-20T10:33:09;23.80;97.90
52899;DHT22;38763;53.096;6.062;2023-07-20T10:35:54;23.20;96.90
52899;DHT22;38763;53.096;6.062;2023-07-20T10:38:22;22.50;97.40
52899;DHT22;38763;53.096;6.062;2023-07-20T10:41:03;21.90;99.20
52899;DHT22;38763;53.096;6.062;2023-07-20T10:43:28;21.80;98.20
52899;DHT22;38763;53.096;6.062;2023-07-20T10:45:55;21.60;97.50
52899;DHT22;38763;53.096;6.062;2023-07-20T10:48:25;21.80;98.00
52899;DHT22;38763;53.096;6.062;2023-07-20T10:53:35;23.30;97.70
52899;DHT22;38763;53.096;6.062;2023-07-20T10:56:11;23.00;97.00
52899;DHT22;38763;53.096;6.062;2023-07-20T10:58:37;22.80;95.10
52899;DHT22;38763;53.096;6.062;2023-07-20T11:01:04;22.90;96.00
52899;DHT22;38763;53.096;6.062;2023-07-20T11:03:36;22.70;98.10
52899;DHT22;38763;53.096;6.062;2023-07-20T11:09:14;20.90;99.90
52899;DHT22;38763;53.096;6.062;2023-07-20T11:11:50;20.60;99.90
52899;DHT22;38763;53.096;6.062;2023-07-20T11:14:24;20.50;99.90
52899;DHT22;38763;53.096;6.062;2023-07-20T11:16:51;20.30;99.90
52899;DHT22;38763;53.096;6.062;2023-07-20T11:19:22;20.30;99.90
52899;DHT22;38763;53.096;6.062;2023-07-20T11:21:53;20.10;99.90
52899;DHT22;38763;53.096;6.062;2023-07-20T11:24:19;20.10;99.90
52899;DHT22;38763;53.096;6.062;2023-07-20T11:26:47;20.00;99.90
52899;DHT22;38763;53.096;6.062;2023-07-20T11:29:15;20.00;99.90
52899;DHT22;38763;53.096;6.062;2023-07-20T11:31:42;20.30;99.90
52899;DHT22;38763;53.096;6.062;2023-07-20T11:34:12;20.60;99.90
52899;DHT22;38763;53.096;6.062;2023-07-20T11:36:41;20.90;99.90
52899;DHT22;38763;53.096;6.062;2023-07-20T11:39:09;21.00;99.90
52899;DHT22;38763;53.096;6.062;2023-07-20T11:41:35;21.20;99.90
52899;DHT22;38763;53.096;6.062;2023-07-20T11:44:00;21.20;99.90
52899;DHT22;38763;53.096;6.062;2023-07-20T11:46:28;21.30;99.90
52899;DHT22;38763;53.096;6.062;2023-07-20T11:49:00;21.40;99.90
52899;DHT22;38763;53.096;6.062;2023-07-20T11:51:30;20.90;99.90
52899;DHT22;38763;53.096;6.062;2023-07-20T11:53:56;20.90;99.90
52899;DHT22;38763;53.096;6.062;2023-07-20T11:56:23;20.80;99.90
52899;DHT22;38763;53.096;6.062;2023-07-20T11:58:49;20.90;99.90
52899;DHT22;38763;53.096;6.062;2023-07-20T12:01:15;20.70;99.90
52899;DHT22;38763;53.096;6.062;2023-07-20T12:03:44;20.70;99.90
52899;DHT22;38763;53.096;6.062;2023-07-20T12:06:10;20.70;99.90
52899;DHT22;38763;53.096;6.062;2023-07-20T12:08:40;21.10;99.90
52899;DHT22;38763;53.096;6.062;2023-07-20T12:11:07;21.50;99.90
52899;DHT22;38763;53.096;6.062;2023-07-20T12:13:42;21.50;99.90
52899;DHT22;38763;53.096;6.062;2023-07-20T12:16:13;21.70;99.90
52899;DHT22;38763;53.096;6.062;2023-07-20T12:18:40;21.30;99.90
52899;DHT22;38763;53.096;6.062;2023-07-20T12:21:06;21.40;99.90
52899;DHT22;38763;53.096;6.062;2023-07-20T12:23:38;21.20;99.90
52899;DHT22;38763;53.096;6.062;2023-07-20T12:26:07;21.00;99.90
52899;DHT22;38763;53.096;6.062;2023-07-20T12:28:33;20.60;99.90
52899;DHT22;38763;53.096;6.062;2023-07-20T12:30:58;20.90;99.90
52899;DHT22;38763;53.096;6.062;2023-07-20T12:33:24;21.00;99.90
52899;DHT22;38763;53.096;6.062;2023-07-20T12:35:50;21.10;99.90
52899;DHT22;38763;53.096;6.062;2023-07-20T12:38:16;21.00;99.90
52899;DHT22;38763;53.096;6.062;2023-07-20T12:40:42;20.80;99.90
52899;DHT22;38763;53.096;6.062;2023-07-20T12:43:08;20.70;99.90
52899;DHT22;38763;53.096;6.062;2023-07-20T12:45:34;20.90;99.90
52899;DHT22;38763;53.096;6.062;2023-07-20T12:47:59;20.80;99.80
52899;DHT22;38763;53.096;6.062;2023-07-20T12:50:26;20.90;98.90
52899;DHT22;38763;53.096;6.062;2023-07-20T12:52:52;21.00;99.90
52899;DHT22;38763;53.096;6.062;2023-07-20T12:55:17;20.60;99.90
52899;DHT22;38763;53.096;6.062;2023-07-20T12:57:43;20.70;99.80
52899;DHT22;38763;53.096;6.062;2023-07-20T13:00:10;21.00;99.70
52899;DHT22;38763;53.096;6.062;2023-07-20T13:02:38;21.30;99.90
52899;DHT22;38763;53.096;6.062;2023-07-20T13:05:03;21.30;99.60
52899;DHT22;38763;53.096;6.062;2023-07-20T13:07:34;21.30;99.90
52899;DHT22;38763;53.096;6.062;2023-07-20T13:10:00;21.30;99.90
52899;DHT22;38763;53.096;6.062;2023-07-20T13:12:30;21.00;98.60
52899;DHT22;38763;53.096;6.062;2023-07-20T13:14:57;21.20;99.50
52899;DHT22;38763;53.096;6.062;2023-07-20T13:17:26;21.20;98.80
52899;DHT22;38763;53.096;6.062;2023-07-20T13:19:52;21.10;99.00
52899;DHT22;38763;53.096;6.062;2023-07-20T13:22:18;21.20;96.90
52899;DHT22;38763;53.096;6.062;2023-07-20T13:24:47;21.40;98.80
52899;DHT22;38763;53.096;6.062;2023-07-20T13:27:18;21.40;99.60
52899;DHT22;38763;53.096;6.062;2023-07-20T13:29:45;21.40;98.90
52899;DHT22;38763;53.096;6.062;2023-07-20T13:32:14;21.30;98.30
52899;DHT22;38763;53.096;6.062;2023-07-20T13:34:46;21.10;97.80
52899;DHT22;38763;53.096;6.062;2023-07-20T13:37:11;21.10;98.80
52899;DHT22;38763;53.096;6.062;2023-07-20T13:39:38;21.00;98.10
52899;DHT22;38763;53.096;6.062;2023-07-20T13:42:04;21.00;98.70
52899;DHT22;38763;53.096;6.062;2023-07-20T13:44:33;20.90;99.20
52899;DHT22;38763;53.096;6.062;2023-07-20T13:47:00;21.10;99.70
52899;DHT22;38763;53.096;6.062;2023-07-20T13:49:26;20.90;97.90
52899;DHT22;38763;53.096;6.062;2023-07-20T13:51:51;21.10;97.60
52899;DHT22;38763;53.096;6.062;2023-07-20T13:54:17;21.20;99.10
52899;DHT22;38763;53.096;6.062;2023-07-20T13:56:43;21.30;97.60
52899;DHT22;38763;53.096;6.062;2023-07-20T13:59:08;21.10;97.10
52899;DHT22;38763;53.096;6.062;2023-07-20T14:01:34;21.00;97.30
52899;DHT22;38763;53.096;6.062;2023-07-20T14:04:01;20.90;96.50
52899;DHT22;38763;53.096;6.062;2023-07-20T14:06:30;20.90;97.20
52899;DHT22;38763;53.096;6.062;2023-07-20T14:08:56;21.00;96.20
52899;DHT22;38763;53.096;6.062;2023-07-20T14:11:23;21.20;98.10
52899;DHT22;38763;53.096;6.062;2023-07-20T14:13:52;21.20;97.40
52899;DHT22;38763;53.096;6.062;2023-07-20T14:16:21;21.30;97.40
52899;DHT22;38763;53.096;6.062;2023-07-20T14:18:47;21.50;98.10
52899;DHT22;38763;53.096;6.062;2023-07-20T14:21:14;21.20;96.00
52899;DHT22;38763;53.096;6.062;2023-07-20T14:23:40;21.10;96.30
52899;DHT22;38763;53.096;6.062;2023-07-20T14:26:06;20.80;96.70
52899;DHT22;38763;53.096;6.062;2023-07-20T14:28:33;21.10;98.20
52899;DHT22;38763;53.096;6.062;2023-07-20T14:30:58;21.20;97.60
52899;DHT22;38763;53.096;6.062;2023-07-20T14:33:24;21.30;97.20
52899;DHT22;38763;53.096;6.062;2023-07-20T14:35:50;21.40;98.00
52899;DHT22;38763;53.096;6.062;2023-07-20T14:38:15;21.40;97.20
52899;DHT22;38763;53.096;6.062;2023-07-20T14:40:41;21.30;97.50
52899;DHT22;38763;53.096;6.062;2023-07-20T14:43:07;21.10;98.40
52899;DHT22;38763;53.096;6.062;2023-07-20T14:45:32;20.90;98.30
52899;DHT22;38763;53.096;6.062;2023-07-20T14:47:58;20.80;96.90
52899;DHT22;38763;53.096;6.062;2023-07-20T14:50:24;20.70;96.10
52899;DHT22;38763;53.096;6.062;2023-07-20T14:52:50;20.90;97.20
52899;DHT22;38763;53.096;6.062;2023-07-20T14:55:16;20.90;98.30
52899;DHT22;38763;53.096;6.062;2023-07-20T14:57:42;21.00;97.00
52899;DHT22;38763;53.096;6.062;2023-07-20T15:00:09;21.00;97.40
52899;DHT22;38763;53.096;6.062;2023-07-20T15:02:36;21.10;97.80
52899;DHT22;38763;53.096;6.062;2023-07-20T15:05:03;21.10;97.80
52899;DHT22;38763;53.096;6.062;2023-07-20T15:07:29;20.90;98.40
52899;DHT22;38763;53.096;6.062;2023-07-20T15:09:54;20.80;97.90
52899;DHT22;38763;53.096;6.062;2023-07-20T15:12:20;20.70;99.10
52899;DHT22;38763;53.096;6.062;2023-07-20T15:15:05;20.70;99.80
52899;DHT22;38763;53.096;6.062;2023-07-20T15:17:32;20.70;99.00
52899;DHT22;38763;53.096;6.062;2023-07-20T15:19:58;20.90;98.60
52899;DHT22;38763;53.096;6.062;2023-07-20T15:22:24;20.90;99.90
52899;DHT22;38763;53.096;6.062;2023-07-20T15:24:50;20.70;99.40
52899;DHT22;38763;53.096;6.062;2023-07-20T15:27:16;20.50;99.10
52899;DHT22;38763;53.096;6.062;2023-07-20T15:29:42;20.50;99.00
52899;DHT22;38763;53.096;6.062;2023-07-20T15:32:08;20.40;99.50
52899;DHT22;38763;53.096;6.062;2023-07-20T15:34:34;20.50;99.50
52899;DHT22;38763;53.096;6.062;2023-07-20T15:37:00;20.50;99.10
52899;DHT22;38763;53.096;6.062;2023-07-20T15:39:25;20.50;98.80
52899;DHT22;38763;53.096;6.062;2023-07-20T15:41:52;20.60;99.40
52899;DHT22;38763;53.096;6.062;2023-07-20T15:44:18;20.70;99.90
52899;DHT22;38763;53.096;6.062;2023-07-20T15:46:45;20.70;99.90